Time;durP1;ratioP1;P1;durP2;ratioP2;P2;SDS_P1;SDS_P2;PMS_P1;PMS_P2;Temp;Humidity;BMP_temperature;BMP_pressure;BME280_temperature;BME280_humidity;BME280_pressure;Samples;Min_cycle;Max_cycle;Signal;HPM_P1;HPM_P2
2022/08/07 00:00:33;;;;;;;3.35;2.65;;;;;;;21.56;86.46;98175.53;5050886;28;20074;-75
2022/08/07 00:02:59;;;;;;;3.30;2.70;;;;;;;21.54;86.41;98175.09;5052713;28;20029;-75
2022/08/07 00:05:25;;;;;;;3.50;2.85;;;;;;;21.51;86.67;98181.38;5051811;28;20602;-76
2022/08/07 00:07:51;;;;;;;3.28;2.88;;;;;;;21.46;87.06;98187.25;5049465;28;20082;-75
2022/08/07 00:10:17;;;;;;;3.53;2.78;;;;;;;21.34;87.89;98186.16;5068403;28;20102;-76
2022/08/07 00:12:43;;;;;;;3.13;2.63;;;;;;;21.33;88.52;98181.75;5061564;28;20086;-75
2022/08/07 00:15:09;;;;;;;3.30;2.78;;;;;;;21.32;88.49;98187.69;5052813;28;20733;-76
2022/08/07 00:17:35;;;;;;;3.05;2.70;;;;;;;21.25;89.22;98190.28;5050994;28;20171;-75
2022/08/07 00:20:00;;;;;;;4.22;3.20;;;;;;;21.17;89.68;98182.94;5058563;28;20111;-74
2022/08/07 00:22:26;;;;;;;3.25;2.88;;;;;;;21.14;90.05;98183.66;5060254;28;20125;-76
2022/08/07 00:24:51;;;;;;;3.40;2.80;;;;;;;21.17;89.72;98183.75;5059672;28;20052;-74
2022/08/07 00:27:16;;;;;;;3.28;2.63;;;;;;;21.08;90.49;98188.63;5053188;28;20052;-76
2022/08/07 00:29:42;;;;;;;4.13;3.05;;;;;;;21.05;90.76;98183.78;5053880;28;20021;-76
2022/08/07 00:32:08;;;;;;;3.28;2.97;;;;;;;20.97;91.34;98190.34;5054025;28;20438;-75
2022/08/07 00:34:34;;;;;;;3.03;2.45;;;;;;;20.93;91.55;98189.44;5053286;28;20529;-76
2022/08/07 00:36:59;;;;;;;3.38;3.08;;;;;;;20.93;91.76;98192.22;5047447;28;20112;-76
2022/08/07 00:39:25;;;;;;;3.13;2.67;;;;;;;20.79;92.61;98186.28;5049254;28;20020;-75
2022/08/07 00:41:53;;;;;;;4.78;3.08;;;;;;;20.78;92.81;98187.44;5074421;28;20031;-74
2022/08/07 00:44:19;;;;;;;3.33;2.53;;;;;;;20.74;93.34;98186.53;5073279;28;20028;-75
2022/08/07 00:46:44;;;;;;;3.42;2.85;;;;;;;20.76;93.13;98192.56;5072924;28;20024;-74
2022/08/07 00:49:10;;;;;;;3.20;2.83;;;;;;;20.73;93.33;98187.72;5072694;28;20039;-75
2022/08/07 00:51:35;;;;;;;3.45;2.83;;;;;;;20.69;94.07;98195.13;5072455;28;20029;-75
2022/08/07 00:54:00;;;;;;;3.45;3.00;;;;;;;20.65;94.58;98197.81;5072846;28;20027;-75
2022/08/07 00:56:27;;;;;;;3.63;2.90;;;;;;;20.62;94.36;98192.16;5072868;28;20033;-75
2022/08/07 00:58:53;;;;;;;4.05;2.90;;;;;;;20.62;94.43;98184.63;5073031;28;20409;-76
2022/08/07 01:01:21;;;;;;;5.35;3.35;;;;;;;20.55;94.78;98180.84;5074148;28;20089;-75
2022/08/07 01:03:50;;;;;;;4.03;3.08;;;;;;;20.55;95.63;98184.41;5074513;28;20016;-75
2022/08/07 01:06:16;;;;;;;3.90;3.03;;;;;;;20.62;95.06;98184.63;5072464;28;20040;-75
2022/08/07 01:08:41;;;;;;;3.42;2.90;;;;;;;20.59;95.31;98178.97;5063027;28;20032;-75
2022/08/07 01:11:07;;;;;;;5.20;3.10;;;;;;;20.54;95.10;98177.28;5052539;28;20485;-75
2022/08/07 01:13:33;;;;;;;3.53;2.90;;;;;;;20.50;96.38;98190.25;5052464;28;20116;-75
2022/08/07 01:15:59;;;;;;;3.92;3.20;;;;;;;20.49;95.96;98187.81;5049971;28;20028;-75
2022/08/07 01:18:26;;;;;;;4.00;2.58;;;;;;;20.52;95.78;98184.31;5051303;28;20116;-75
2022/08/07 01:21:06;;;;;;;3.70;2.88;;;;;;;20.49;95.98;98187.81;5051327;28;20425;-75
2022/08/07 01:23:32;;;;;;;5.15;3.03;;;;;;;20.48;96.46;98192.59;5051542;28;20113;-76
2022/08/07 01:25:58;;;;;;;3.50;2.78;;;;;;;20.43;96.29;98183.66;5052079;28;20117;-76
2022/08/07 01:28:24;;;;;;;3.63;2.80;;;;;;;20.35;97.20;98184.66;5051821;28;20040;-75
2022/08/07 01:30:51;;;;;;;3.00;2.60;;;;;;;20.36;96.50;98187.06;5052109;28;20029;-75
2022/08/07 01:33:16;;;;;;;4.00;3.17;;;;;;;20.27;96.97;98183.63;5052169;28;20413;-77
2022/08/07 01:35:42;;;;;;;3.05;2.70;;;;;;;20.29;97.11;98190.47;5050432;28;20041;-76
2022/08/07 01:38:07;;;;;;;3.60;2.97;;;;;;;20.33;97.20;98195.31;5051946;28;20043;-74
2022/08/07 01:40:33;;;;;;;4.35;2.92;;;;;;;20.38;96.75;98187.53;5051900;28;20051;-75
2022/08/07 01:42:59;;;;;;;3.45;2.72;;;;;;;20.45;96.56;98187.75;5051792;28;20033;-76
2022/08/07 01:45:25;;;;;;;3.67;2.78;;;;;;;20.39;96.86;98191.13;5051833;28;20029;-75
2022/08/07 01:47:51;;;;;;;4.65;3.22;;;;;;;20.24;98.24;98185.09;5051611;28;20111;-75
2022/08/07 01:50:17;;;;;;;3.72;3.13;;;;;;;20.19;98.28;98184.56;5051738;28;20112;-76
2022/08/07 01:52:46;;;;;;;3.83;2.83;;;;;;;20.21;98.84;98180.25;5051776;28;20029;-76
2022/08/07 01:55:13;;;;;;;6.32;3.03;;;;;;;20.17;98.40;98179.34;5051545;28;20033;-78
2022/08/07 01:57:41;;;;;;;3.55;2.97;;;;;;;20.20;98.56;98181.41;5052165;28;20078;-76
2022/08/07 02:00:11;;;;;;;3.75;2.80;;;;;;;20.20;98.45;98189.75;5051974;28;20485;-79
2022/08/07 02:02:52;;;;;;;4.15;3.20;;;;;;;20.12;99.26;98187.94;5051522;28;20033;-75
2022/08/07 02:05:38;;;;;;;4.72;3.10;;;;;;;19.99;100.00;98175.22;5031589;28;20092;-75
2022/08/07 02:08:09;;;;;;;4.10;2.90;;;;;;;20.02;100.00;98182.84;5031369;28;20542;-75
2022/08/07 02:10:37;;;;;;;4.22;3.25;;;;;;;19.95;100.00;98182.66;5031356;28;20065;-74
2022/08/07 02:13:04;;;;;;;4.00;3.60;;;;;;;19.99;100.00;98180.78;5031260;28;20029;-75
2022/08/07 02:15:31;;;;;;;11.65;3.30;;;;;;;19.87;100.00;98185.56;5031133;28;20703;-74
2022/08/07 02:17:58;;;;;;;3.60;3.03;;;;;;;19.81;100.00;98173.06;5031220;28;20091;-76
2022/08/07 02:20:24;;;;;;;4.55;3.22;;;;;;;19.84;100.00;98175.16;5031245;28;20034;-75
2022/08/07 02:22:57;;;;;;;5.57;3.58;;;;;;;19.72;100.00;98173.22;5031164;28;20080;-75
2022/08/07 02:25:24;;;;;;;4.47;3.60;;;;;;;19.68;100.00;98172.28;5031214;28;20033;-76
2022/08/07 02:27:50;;;;;;;5.00;3.50;;;;;;;19.65;100.00;98171.03;5031270;28;20109;-75
2022/08/07 02:30:16;;;;;;;4.03;3.40;;;;;;;19.65;100.00;98168.25;5031189;28;20116;-75
2022/08/07 02:32:43;;;;;;;4.25;3.50;;;;;;;19.64;100.00;98174.94;5031767;28;20095;-75
2022/08/07 02:35:10;;;;;;;4.30;3.47;;;;;;;19.60;100.00;98174.06;5031295;28;20045;-75
2022/08/07 02:37:40;;;;;;;3.75;3.35;;;;;;;19.55;100.00;98174.28;5031133;28;20120;-75
2022/08/07 02:40:07;;;;;;;9.43;3.80;;;;;;;19.56;100.00;98169.53;5030365;28;20039;-74
2022/08/07 02:42:34;;;;;;;3.97;3.30;;;;;;;19.55;100.00;98176.25;5030937;28;20394;-76
2022/08/07 02:45:03;;;;;;;3.88;3.40;;;;;;;19.67;100.00;98173.47;5030974;28;20034;-76
2022/08/07 02:47:29;;;;;;;7.25;3.70;;;;;;;19.61;100.00;98175.66;5030914;28;20429;-76
2022/08/07 02:49:55;;;;;;;6.05;3.60;;;;;;;19.66;100.00;98183.75;5031028;28;20028;-75
2022/08/07 02:52:28;;;;;;;3.70;3.22;;;;;;;19.51;100.00;98178.94;5030573;28;20086;-75
2022/08/07 02:54:56;;;;;;;4.07;3.67;;;;;;;19.51;100.00;98178.13;5030790;28;20048;-75
2022/08/07 02:57:22;;;;;;;4.75;3.45;;;;;;;19.37;100.00;98185.94;5030654;28;20053;-74
2022/08/07 02:59:49;;;;;;;4.38;3.45;;;;;;;19.39;100.00;98178.88;5048239;28;20064;-75
2022/08/07 03:02:15;;;;;;;4.07;3.42;;;;;;;19.25;100.00;98184.78;5050693;28;20025;-75
2022/08/07 03:04:42;;;;;;;5.90;3.75;;;;;;;19.29;100.00;98181.31;5050325;28;20509;-76
2022/08/07 03:07:08;;;;;;;4.85;3.58;;;;;;;19.27;100.00;98185.25;5047690;28;20433;-74
2022/08/07 03:09:34;;;;;;;4.82;3.85;;;;;;;19.23;100.00;98184.31;5049884;28;20124;-76
2022/08/07 03:12:04;;;;;;;4.05;3.20;;;;;;;19.17;100.00;98182.91;5049631;28;20025;-75
2022/08/07 03:14:29;;;;;;;5.05;3.28;;;;;;;19.20;100.00;98190.53;5049887;28;20040;-74
2022/08/07 03:16:55;;;;;;;4.80;3.75;;;;;;;19.15;100.00;98188.00;5049815;28;20029;-75
2022/08/07 03:19:22;;;;;;;4.68;3.65;;;;;;;19.12;100.00;98204.53;5049631;28;20049;-75
2022/08/07 03:21:49;;;;;;;4.05;3.60;;;;;;;19.16;100.00;98205.47;5050095;28;20057;-75
2022/08/07 03:24:14;;;;;;;4.03;3.63;;;;;;;19.14;100.00;98214.13;5050345;28;20033;-75
2022/08/07 03:26:41;;;;;;;4.72;3.80;;;;;;;19.11;100.00;98205.69;5050464;28;20554;-75
2022/08/07 03:29:08;;;;;;;8.80;3.95;;;;;;;19.20;100.00;98201.63;5050291;28;20037;-75
2022/08/07 03:31:35;;;;;;;4.40;3.80;;;;;;;19.15;100.00;98210.19;5050372;28;20487;-75
2022/08/07 03:34:02;;;;;;;4.10;3.65;;;;;;;19.06;100.00;98203.94;5049260;28;20029;-75
2022/08/07 03:36:29;;;;;;;4.10;3.70;;;;;;;19.03;100.00;98214.91;5050073;28;20060;-75
2022/08/07 03:39:00;;;;;;;3.90;3.50;;;;;;;19.07;100.00;98191.72;5050322;28;20025;-75
2022/08/07 03:41:27;;;;;;;5.68;3.78;;;;;;;19.06;100.00;98195.63;5050168;28;20036;-74
2022/08/07 03:43:53;;;;;;;4.90;3.75;;;;;;;19.01;100.00;98197.81;5050453;28;20033;-76
2022/08/07 03:46:19;;;;;;;4.18;3.45;;;;;;;19.03;100.00;98196.31;5050327;28;20071;-75
2022/08/07 03:48:45;;;;;;;3.75;3.35;;;;;;;18.98;100.00;98204.84;5050192;28;20119;-74
2022/08/07 03:51:10;;;;;;;4.95;3.80;;;;;;;19.06;100.00;98206.72;5052582;28;20116;-74
2022/08/07 03:53:37;;;;;;;6.05;3.83;;;;;;;19.06;100.00;98205.91;5053782;28;20020;-75
2022/08/07 03:56:03;;;;;;;4.32;3.63;;;;;;;18.98;100.00;98209.59;5053864;28;20029;-74
2022/08/07 03:58:30;;;;;;;6.10;3.60;;;;;;;19.00;100.00;98215.59;5053937;28;20116;-75
2022/08/07 04:00:58;;;;;;;5.28;3.78;;;;;;;18.92;100.00;98216.53;5054249;28;20033;-75
2022/08/07 04:03:24;;;;;;;7.40;3.80;;;;;;;18.96;100.00;98223.81;5054438;28;20067;-74
2022/08/07 04:05:49;;;;;;;3.60;3.15;;;;;;;18.93;100.00;98213.41;5052809;28;20473;-75
2022/08/07 04:08:15;;;;;;;4.38;3.65;;;;;;;18.89;100.00;98211.66;5055016;28;20083;-75
2022/08/07 04:10:42;;;;;;;5.40;3.80;;;;;;;18.95;100.00;98219.41;5053516;28;20029;-76
2022/08/07 04:13:11;;;;;;;4.78;3.50;;;;;;;18.99;100.00;98219.53;5053496;28;20561;-75
2022/08/07 04:15:37;;;;;;;4.07;3.67;;;;;;;18.93;100.00;98221.72;5053445;28;20021;-75
2022/08/07 04:18:02;;;;;;;4.38;3.90;;;;;;;19.02;100.00;98227.97;5053300;28;20497;-75
2022/08/07 04:20:28;;;;;;;3.97;3.58;;;;;;;19.08;100.00;98232.13;5053070;28;20037;-75
2022/08/07 04:22:54;;;;;;;5.18;3.55;;;;;;;19.04;100.00;98231.22;5052006;28;20036;-76
2022/08/07 04:25:24;;;;;;;5.43;4.00;;;;;;;19.05;100.00;98232.81;5053122;28;20060;-75
2022/08/07 04:27:49;;;;;;;4.90;3.80;;;;;;;19.13;100.00;98234.72;5053213;28;20086;-76
2022/08/07 04:30:15;;;;;;;5.25;3.75;;;;;;;19.14;100.00;98230.75;5053232;28;20017;-75
2022/08/07 04:32:41;;;;;;;4.65;3.78;;;;;;;19.28;100.00;98241.53;5053421;28;20469;-75
2022/08/07 04:35:07;;;;;;;4.78;3.92;;;;;;;19.15;100.00;98242.66;5052980;28;20049;-75
2022/08/07 04:37:34;;;;;;;7.28;4.22;;;;;;;19.15;100.00;98237.13;5052757;28;20044;-75
2022/08/07 04:40:00;;;;;;;5.82;3.72;;;;;;;19.21;100.00;98246.84;5053043;28;20033;-75
2022/08/07 04:42:29;;;;;;;5.20;3.78;;;;;;;19.33;99.20;98254.38;5041320;28;20529;-75
2022/08/07 04:44:56;;;;;;;8.68;3.80;;;;;;;19.30;99.83;98257.81;5049847;28;20033;-75
2022/08/07 04:48:01;;;;;;;5.30;3.72;;;;;;;19.55;97.84;98263.09;5052135;28;20446;-75
2022/08/07 04:50:36;;;;;;;5.28;4.20;;;;;;;19.42;97.72;98267.00;5030099;28;20037;-75
2022/08/07 04:53:07;;;;;;;6.15;3.70;;;;;;;19.62;96.88;98273.63;5049242;28;20040;-75
2022/08/07 04:56:12;;;;;;;6.95;3.90;;;;;;;19.47;96.54;98275.13;5052324;28;20064;-75
2022/08/07 04:59:04;;;;;;;4.65;3.50;;;;;;;19.47;95.90;98268.75;5031110;28;20044;-75
2022/08/07 05:01:43;;;;;;;4.28;3.88;;;;;;;19.44;96.66;98273.03;5032019;28;20037;-75
2022/08/07 05:04:17;;;;;;;4.38;3.58;;;;;;;19.63;95.85;98276.06;5032672;28;20025;-75
2022/08/07 05:06:57;;;;;;;6.00;3.72;;;;;;;20.04;93.95;98276.97;5032314;28;20028;-73
2022/08/07 05:09:31;;;;;;;5.35;3.50;;;;;;;20.12;92.38;98270.44;5031994;28;20151;-74
2022/08/07 05:12:01;;;;;;;4.75;4.10;;;;;;;20.09;92.13;98269.19;5030940;28;20529;-76
2022/08/07 05:14:34;;;;;;;4.15;3.72;;;;;;;20.33;90.88;98268.34;5032145;28;20037;-71
2022/08/07 05:17:03;;;;;;;5.40;3.42;;;;;;;20.55;89.95;98280.94;5031636;28;20481;-71
2022/08/07 05:19:43;;;;;;;4.63;3.50;;;;;;;20.63;88.56;98277.19;5031682;28;20034;-75
2022/08/07 05:22:10;;;;;;;4.88;3.67;;;;;;;20.29;89.37;98279.38;5031894;28;20387;-71
2022/08/07 05:24:38;;;;;;;5.78;3.92;;;;;;;20.25;89.91;98281.19;5030542;28;20392;-70
2022/08/07 05:27:05;;;;;;;4.43;3.58;;;;;;;20.69;88.13;98271.03;5031774;28;20107;-73
2022/08/07 05:29:33;;;;;;;5.93;4.05;;;;;;;21.08;85.38;98280.44;5031908;28;20080;-72
2022/08/07 05:31:59;;;;;;;7.78;3.63;;;;;;;20.67;86.49;98280.88;5031735;28;20405;-73
2022/08/07 05:34:25;;;;;;;4.15;3.25;;;;;;;20.84;86.11;98275.81;5031926;28;20025;-73
2022/08/07 05:36:52;;;;;;;5.05;3.78;;;;;;;20.66;86.53;98282.03;5040911;28;20031;-73
2022/08/07 05:39:19;;;;;;;4.30;3.58;;;;;;;20.77;85.75;98283.13;5051447;28;20036;-71
2022/08/07 05:41:47;;;;;;;5.55;3.60;;;;;;;21.03;85.15;98288.25;5051417;28;20021;-72
2022/08/07 05:44:14;;;;;;;3.55;3.25;;;;;;;21.19;83.36;98292.72;5051461;28;20536;-71
2022/08/07 05:46:41;;;;;;;3.72;3.17;;;;;;;21.40;82.57;98297.22;5051363;28;20033;-75
2022/08/07 05:49:08;;;;;;;4.70;4.15;;;;;;;21.25;82.63;98293.25;5049996;28;20444;-72
2022/08/07 05:51:34;;;;;;;4.30;3.55;;;;;;;21.14;83.64;98295.78;5051203;28;20027;-74
2022/08/07 05:54:00;;;;;;;5.57;3.60;;;;;;;21.19;83.02;98300.25;5051367;28;20112;-74
2022/08/07 05:56:28;;;;;;;5.10;3.30;;;;;;;21.51;81.02;98292.75;5051098;28;20451;-75
2022/08/07 05:58:54;;;;;;;6.97;3.50;;;;;;;21.63;80.33;98301.00;5051571;28;20032;-74
2022/08/07 06:01:21;;;;;;;4.43;3.60;;;;;;;21.53;82.15;98305.13;5051421;28;20024;-71
2022/08/07 06:03:52;;;;;;;4.72;4.07;;;;;;;21.73;79.78;98303.25;5051510;28;20184;-76
2022/08/07 06:06:19;;;;;;;4.68;3.50;;;;;;;21.32;81.30;98294.25;5050769;28;20037;-75
2022/08/07 06:08:45;;;;;;;6.43;3.75;;;;;;;21.78;80.48;98303.78;5050844;28;20063;-74
2022/08/07 06:11:12;;;;;;;4.15;3.40;;;;;;;21.94;79.06;98306.59;5050886;28;20051;-74
2022/08/07 06:13:38;;;;;;;5.72;3.75;;;;;;;21.77;79.15;98301.38;5048889;28;20025;-76
2022/08/07 06:16:06;;;;;;;4.45;3.40;;;;;;;21.45;80.52;98306.13;5050787;28;20028;-71
2022/08/07 06:18:32;;;;;;;4.45;3.28;;;;;;;21.47;80.93;98303.78;5050877;28;20446;-72
2022/08/07 06:21:02;;;;;;;6.10;4.38;;;;;;;21.74;78.55;98307.69;5050834;28;20060;-72
2022/08/07 06:23:29;;;;;;;4.78;3.83;;;;;;;21.75;78.64;98315.66;5053226;28;20033;-74
2022/08/07 06:25:55;;;;;;;4.30;3.63;;;;;;;21.57;79.18;98317.19;5052828;28;20090;-75
2022/08/07 06:28:21;;;;;;;6.10;3.72;;;;;;;21.82;78.79;98315.03;5050845;28;20033;-73
2022/08/07 06:30:47;;;;;;;3.78;3.17;;;;;;;21.82;78.21;98310.25;5050621;28;20028;-72
2022/08/07 06:33:12;;;;;;;7.70;6.10;;;;;;;22.05;78.28;98316.03;5051023;28;20119;-72
2022/08/07 06:35:37;;;;;;;10.30;5.85;;;;;;;22.35;76.00;98311.56;5049734;28;20053;-74
2022/08/07 06:38:03;;;;;;;6.03;3.90;;;;;;;22.55;75.39;98315.19;5030486;28;20036;-74
2022/08/07 06:40:33;;;;;;;5.57;4.25;;;;;;;22.15;77.07;98314.63;5030454;28;20040;-73
2022/08/07 06:43:04;;;;;;;16.67;10.93;;;;;;;21.98;76.37;98313.06;5030541;28;20033;-72
2022/08/07 06:45:32;;;;;;;5.25;3.95;;;;;;;21.87;76.46;98311.94;5030613;28;20051;-73
2022/08/07 06:47:57;;;;;;;3.90;3.33;;;;;;;21.71;77.86;98308.38;5030395;28;20378;-75
2022/08/07 06:50:23;;;;;;;4.82;3.95;;;;;;;22.05;76.73;98306.88;5030647;28;20029;-73
2022/08/07 06:52:53;;;;;;;4.75;4.13;;;;;;;22.28;75.31;98303.03;5030488;28;20034;-74
2022/08/07 06:55:24;;;;;;;10.57;5.72;;;;;;;22.28;75.31;98308.59;5030489;28;20026;-75
2022/08/07 06:57:52;;;;;;;4.90;3.40;;;;;;;22.30;74.22;98311.81;5030480;28;20389;-74
2022/08/07 07:00:18;;;;;;;7.43;3.55;;;;;;;22.24;75.14;98306.91;5030336;28;20037;-73
2022/08/07 07:02:45;;;;;;;7.60;5.47;;;;;;;22.79;73.79;98314.13;5030421;28;20025;-72
2022/08/07 07:05:11;;;;;;;4.97;4.03;;;;;;;22.65;73.11;98311.00;5030574;28;20103;-73
2022/08/07 07:07:37;;;;;;;10.85;3.45;;;;;;;22.55;73.61;98311.59;5030465;28;20056;-72
2022/08/07 07:10:02;;;;;;;5.82;3.53;;;;;;;22.55;73.83;98308.81;5030086;28;20056;-71
2022/08/07 07:12:39;;;;;;;4.22;3.40;;;;;;;22.42;73.94;98308.13;5030217;28;20030;-72
2022/08/07 07:15:17;;;;;;;5.97;3.53;;;;;;;22.61;73.56;98307.34;5030306;28;20025;-72
2022/08/07 07:18:14;;;;;;;5.38;4.53;;;;;;;23.10;72.55;98313.16;5030096;28;20316;-71
2022/08/07 07:20:48;;;;;;;6.35;3.28;;;;;;;23.21;71.75;98303.81;5029603;28;20124;-75
2022/08/07 07:23:14;;;;;;;4.50;3.77;;;;;;;22.71;72.68;98301.22;5030054;28;20084;-72
2022/08/07 07:25:42;;;;;;;5.85;3.72;;;;;;;22.60;73.17;98297.34;5031488;28;20037;-72
2022/08/07 07:28:13;;;;;;;4.88;3.40;;;;;;;23.14;71.83;98292.53;5034096;28;20025;-73
2022/08/07 07:30:44;;;;;;;6.00;3.63;;;;;;;23.16;71.74;98292.13;5045285;28;20431;-72
2022/08/07 07:33:12;;;;;;;3.83;3.42;;;;;;;23.84;69.66;98293.00;5053820;28;20120;-72
2022/08/07 07:35:41;;;;;;;4.00;3.55;;;;;;;24.07;67.70;98294.94;5052217;28;20041;-73
2022/08/07 07:38:08;;;;;;;4.30;3.60;;;;;;;23.94;67.34;98291.56;5053674;28;20503;-71
2022/08/07 07:40:36;;;;;;;4.97;3.60;;;;;;;24.06;67.05;98293.38;5053505;28;20021;-71
2022/08/07 07:43:04;;;;;;;4.90;3.60;;;;;;;23.91;66.60;98295.09;5053170;28;20025;-72
2022/08/07 07:45:30;;;;;;;3.80;3.40;;;;;;;23.79;67.60;98290.53;5053133;28;20112;-71
2022/08/07 07:47:58;;;;;;;10.77;3.83;;;;;;;23.29;68.82;98288.00;5051272;28;20550;-73
2022/08/07 07:50:26;;;;;;;4.53;3.40;;;;;;;23.37;68.69;98284.97;5052967;28;20552;-75
2022/08/07 07:52:52;;;;;;;5.95;3.50;;;;;;;23.07;69.61;98286.81;5048197;28;20051;-71
2022/08/07 07:55:19;;;;;;;5.93;3.67;;;;;;;23.10;69.94;98283.28;5051882;28;20029;-74
2022/08/07 07:57:48;;;;;;;4.07;3.47;;;;;;;23.33;69.62;98283.31;5050833;28;20040;-75
2022/08/07 08:00:14;;;;;;;4.18;3.58;;;;;;;23.34;68.67;98282.91;5051858;28;20021;-74
2022/08/07 08:02:43;;;;;;;4.72;3.47;;;;;;;23.63;67.94;98269.47;5052057;28;20029;-72
2022/08/07 08:05:10;;;;;;;4.28;3.33;;;;;;;24.28;65.71;98273.75;5051554;28;20029;-72
2022/08/07 08:07:38;;;;;;;3.90;3.50;;;;;;;24.31;64.61;98272.97;5052123;28;20667;-71
2022/08/07 08:10:06;;;;;;;5.25;3.38;;;;;;;23.66;66.97;98271.53;5052192;28;20052;-71
2022/08/07 08:12:32;;;;;;;6.78;3.78;;;;;;;23.87;66.25;98269.09;5050796;28;20412;-74
2022/08/07 08:14:58;;;;;;;4.10;3.30;;;;;;;23.70;67.20;98266.81;5047708;28;20078;-73
2022/08/07 08:17:25;;;;;;;5.30;3.50;;;;;;;23.86;66.05;98267.47;5052144;28;20037;-73
2022/08/07 08:19:53;;;;;;;3.85;3.42;;;;;;;23.45;66.44;98270.00;5053108;28;20036;-71
2022/08/07 08:27:51;;;;;;;;;;;;;;;24.73;61.92;98267.16;5049520;28;20039;-71
2022/08/07 08:30:16;;;;;;;4.07;3.33;;;;;;;24.31;63.66;98266.56;5050128;28;19920;-71
2022/08/07 08:32:55;;;;;;;5.35;3.30;;;;;;;23.63;65.60;98259.13;5050494;28;20385;-71
2022/08/07 08:35:25;;;;;;;5.07;3.45;;;;;;;23.53;65.66;98258.94;5048478;28;20041;-71
2022/08/07 08:37:56;;;;;;;3.45;3.10;;;;;;;23.88;65.74;98263.13;5047258;28;20024;-71
2022/08/07 08:40:36;;;;;;;4.30;3.80;;;;;;;23.50;67.01;98256.88;5047685;28;20029;-70
2022/08/07 08:43:23;;;;;;;4.35;3.50;;;;;;;23.69;66.33;98262.41;5050266;28;20032;-73
2022/08/07 08:46:03;;;;;;;3.97;3.30;;;;;;;24.22;65.04;98257.66;5050265;28;20095;-71
2022/08/07 08:48:37;;;;;;;4.38;3.30;;;;;;;24.10;65.85;98261.47;5043500;28;20090;-70
2022/08/07 08:51:15;;;;;;;5.25;3.42;;;;;;;23.30;67.29;98258.91;5036175;28;20282;-70
2022/08/07 08:54:03;;;;;;;3.78;3.35;;;;;;;23.54;66.45;98249.38;5042362;28;20033;-72
2022/08/07 08:56:35;;;;;;;3.60;3.13;;;;;;;23.64;67.20;98257.13;5047492;28;20040;-74
2022/08/07 08:59:06;;;;;;;4.55;3.80;;;;;;;23.19;68.73;98255.91;5045410;28;20037;-74
2022/08/07 09:01:47;;;;;;;4.32;3.60;;;;;;;23.12;69.80;98257.78;5046301;28;20025;-79
2022/08/07 09:04:45;;;;;;;4.72;3.63;;;;;;;23.20;69.41;98259.53;5043827;28;20036;-79
2022/08/07 09:07:42;;;;;;;4.85;3.30;;;;;;;22.95;70.70;98256.25;5048075;28;20025;-78
2022/08/07 09:10:22;;;;;;;4.45;3.30;;;;;;;23.36;69.35;98266.63;5058680;28;20836;-80
2022/08/07 09:13:23;;;;;;;4.18;3.38;;;;;;;23.00;69.74;98253.16;5073998;28;20021;-82
2022/08/07 09:15:48;;;;;;;4.28;3.08;;;;;;;23.09;70.26;98255.72;5037631;28;20034;-81
2022/08/07 09:18:44;;;;;;;5.93;3.40;;;;;;;23.00;70.77;98258.75;5052204;28;20054;-77
2022/08/07 09:21:15;;;;;;;;;;;;;;;23.45;70.00;98258.81;5046681;28;20064;-77
2022/08/07 09:23:55;;;;;;;4.45;3.28;;;;;;;23.43;68.15;98254.81;5048720;28;19917;-78
2022/08/07 09:26:39;;;;;;;3.83;3.20;;;;;;;23.87;68.40;98252.34;5052842;28;20036;-78
2022/08/07 09:29:46;;;;;;;6.82;3.80;;;;;;;24.25;67.01;98249.31;5054258;28;20636;-78
2022/08/07 09:32:20;;;;;;;4.22;3.33;;;;;;;23.79;66.79;98250.59;5073281;28;20037;-78
2022/08/07 09:34:54;;;;;;;4.82;3.08;;;;;;;24.37;66.42;98251.88;5061337;28;20040;-79
2022/08/07 09:37:43;;;;;;;7.40;3.25;;;;;;;23.56;66.93;98252.59;5067095;28;20048;-78
2022/08/07 09:40:31;;;;;;;4.07;2.90;;;;;;;23.83;67.17;98251.47;5052630;28;20033;-76
2022/08/07 09:42:59;;;;;;;3.50;3.05;;;;;;;24.14;66.49;98245.59;5068305;28;20031;-77
2022/08/07 09:45:51;;;;;;;3.30;2.75;;;;;;;24.08;66.55;98243.47;5057350;28;20036;-76
2022/08/07 09:48:33;;;;;;;4.63;3.08;;;;;;;23.29;68.76;98254.50;5038298;28;20499;-74
2022/08/07 09:51:31;;;;;;;4.00;3.13;;;;;;;23.71;66.76;98246.09;5058914;28;20028;-74
2022/08/07 09:54:00;;;;;;;3.80;3.17;;;;;;;23.18;68.79;98247.94;5051307;28;20029;-75
2022/08/07 09:57:09;;;;;;;5.55;2.83;;;;;;;23.98;66.46;98239.31;5061373;28;20032;-75
2022/08/07 10:00:03;;;;;;;4.13;3.10;;;;;;;24.62;66.97;98243.03;5037601;28;20033;-75
2022/08/07 10:03:02;;;;;;;4.70;3.20;;;;;;;25.50;64.87;98233.63;5037421;28;20470;-75
2022/08/07 10:05:52;;;;;;;9.57;2.90;;;;;;;26.57;63.83;98235.19;5050682;28;20037;-74
2022/08/07 10:08:51;;;;;;;3.47;2.95;;;;;;;26.51;58.92;98231.94;5040790;28;20021;-78
2022/08/07 10:11:25;;;;;;;4.97;3.13;;;;;;;27.31;57.24;98229.84;5057897;28;20075;-77
2022/08/07 10:14:08;;;;;;;6.55;3.22;;;;;;;28.02;55.36;98230.66;5065908;28;20075;-77
2022/08/07 10:16:53;;;;;;;3.90;3.13;;;;;;;28.54;54.88;98220.50;5055254;28;20163;-75
2022/08/07 10:19:44;;;;;;;4.38;3.10;;;;;;;28.12;53.61;98227.06;5064437;28;20028;-72
2022/08/07 10:22:31;;;;;;;3.33;2.90;;;;;;;29.23;51.84;98222.59;5051817;28;20100;-78
2022/08/07 10:25:10;;;;;;;4.30;2.80;;;;;;;28.80;52.49;98224.06;5032859;28;20037;-79
2022/08/07 10:28:14;;;;;;;3.42;2.70;;;;;;;26.60;56.01;98218.34;5050370;28;20021;-80
2022/08/07 10:30:53;;;;;;;3.60;2.70;;;;;;;26.35;58.22;98206.22;5048884;28;20056;-82
2022/08/07 10:33:37;;;;;;;5.00;3.05;;;;;;;27.38;55.62;98212.97;5041716;28;20033;-77
2022/08/07 10:36:03;;;;;;;4.70;3.22;;;;;;;27.78;56.15;98213.81;5063970;28;20135;-76
2022/08/07 10:38:28;;;;;;;3.97;3.20;;;;;;;28.86;53.20;98209.13;5054483;28;20166;-78
2022/08/07 10:41:32;;;;;;;4.07;3.10;;;;;;;28.90;49.86;98211.94;5059842;28;20021;-77
2022/08/07 10:44:14;;;;;;;3.47;2.88;;;;;;;28.02;52.41;98198.91;5060720;28;20692;-76
2022/08/07 10:46:49;;;;;;;4.30;2.80;;;;;;;28.21;52.51;98198.50;5035633;28;20051;-76
2022/08/07 10:49:31;;;;;;;4.95;3.05;;;;;;;27.43;55.06;98198.56;5047164;28;20029;-76
2022/08/07 10:52:13;;;;;;;3.28;2.72;;;;;;;27.84;55.38;98195.34;5036013;28;20032;-76
2022/08/07 10:55:05;;;;;;;4.55;3.10;;;;;;;27.83;54.29;98190.91;5040790;28;20037;-76
2022/08/07 10:57:56;;;;;;;3.60;2.80;;;;;;;28.02;54.23;98188.47;5045133;28;20044;-77
2022/08/07 11:00:29;;;;;;;3.50;2.88;;;;;;;28.24;54.92;98178.00;5048650;28;20620;-80
2022/08/07 11:02:57;;;;;;;3.65;2.95;;;;;;;28.48;54.95;98185.53;5049064;28;20480;-77
2022/08/07 11:05:36;;;;;;;3.67;3.03;;;;;;;27.38;57.58;98179.25;5055344;28;20120;-76
2022/08/07 11:08:23;;;;;;;5.95;2.75;;;;;;;27.61;53.96;98178.88;5052690;28;20017;-74
2022/08/07 11:11:02;;;;;;;4.38;3.13;;;;;;;28.26;52.59;98169.94;5048529;28;20060;-76
2022/08/07 11:13:38;;;;;;;4.60;2.75;;;;;;;27.96;53.53;98178.84;5046808;28;20033;-78
2022/08/07 11:16:18;;;;;;;4.53;2.90;;;;;;;26.18;57.91;98164.88;5048542;28;20021;-78
2022/08/07 11:18:57;;;;;;;4.50;3.17;;;;;;;26.57;56.69;98165.00;5059630;28;20029;-78
2022/08/07 11:21:50;;;;;;;6.25;3.50;;;;;;;27.09;56.23;98160.78;5063149;28;20461;-75
2022/08/07 11:24:36;;;;;;;4.63;3.22;;;;;;;25.82;58.95;98151.78;5038242;28;20025;-77
2022/08/07 11:27:41;;;;;;;5.13;3.05;;;;;;;26.85;55.66;98161.50;5053988;28;20115;-78
2022/08/07 11:30:12;;;;;;;3.53;2.90;;;;;;;26.69;56.94;98155.44;5039528;28;20489;-79
2022/08/07 11:32:44;;;;;;;4.38;3.08;;;;;;;26.68;57.27;98148.22;5059335;28;20036;-77
2022/08/07 11:35:21;;;;;;;4.85;3.42;;;;;;;27.33;55.32;98148.75;5058411;28;20528;-79
2022/08/07 11:38:11;;;;;;;6.97;4.40;;;;;;;27.56;55.63;98145.56;5066594;28;20119;-76
2022/08/07 11:41:20;;;;;;;5.60;3.33;;;;;;;27.54;54.92;98145.94;5041952;28;20040;-77
2022/08/07 11:43:57;;;;;;;3.90;3.10;;;;;;;26.58;54.98;98130.94;5011411;28;20123;-77
2022/08/07 11:46:40;;;;;;;4.40;3.10;;;;;;;27.03;55.70;98134.28;4995849;28;20169;-77
2022/08/07 11:49:41;;;;;;;4.20;3.22;;;;;;;26.91;54.83;98137.47;5045037;28;20063;-75
2022/08/07 11:52:13;;;;;;;3.00;2.60;;;;;;;27.06;55.44;98144.72;5062840;28;20029;-75
2022/08/07 11:55:19;;;;;;;3.88;3.17;;;;;;;26.53;55.09;98133.34;5041080;28;20029;-78
2022/08/07 11:58:19;;;;;;;4.55;2.95;;;;;;;25.98;57.30;98129.84;5066137;28;20029;-76
2022/08/07 12:01:01;;;;;;;4.32;3.03;;;;;;;25.74;58.39;98122.94;5042027;28;20032;-75